sensor_id;sensor_type;location;lat;lon;timestamp;pressure;altitude;pressure_sealevel;temperature;humidity
39177;BME280;24904;52.208;21.192;2023-03-17T00:00:14;101410.06;;;0.94;65.97
39177;BME280;24904;52.208;21.192;2023-03-17T00:05:21;101408.64;;;0.86;66.13
39177;BME280;24904;52.208;21.192;2023-03-17T00:10:26;101411.51;;;0.84;66.23
39177;BME280;24904;52.208;21.192;2023-03-17T00:15:29;101418.23;;;0.81;66.41
39177;BME280;24904;52.208;21.192;2023-03-17T00:24:36;101419.02;;;0.80;66.44
39177;BME280;24904;52.208;21.192;2023-03-17T00:29:41;101413.27;;;0.71;66.31
39177;BME280;24904;52.208;21.192;2023-03-17T00:34:48;101408.41;;;0.67;66.71
39177;BME280;24904;52.208;21.192;2023-03-17T00:39:53;101398.06;;;0.71;66.73
39177;BME280;24904;52.208;21.192;2023-03-17T00:45:02;101398.30;;;0.69;66.85
39177;BME280;24904;52.208;21.192;2023-03-17T00:50:12;101397.58;;;0.69;66.80
39177;BME280;24904;52.208;21.192;2023-03-17T00:55:19;101391.94;;;0.67;66.72
39177;BME280;24904;52.208;21.192;2023-03-17T01:00:27;101394.05;;;0.55;66.71
39177;BME280;24904;52.208;21.192;2023-03-17T01:05:32;101392.77;;;0.51;66.97
39177;BME280;24904;52.208;21.192;2023-03-17T01:10:38;101387.31;;;0.52;67.06
39177;BME280;24904;52.208;21.192;2023-03-17T01:15:46;101386.00;;;0.53;67.18
39177;BME280;24904;52.208;21.192;2023-03-17T01:20:52;101379.31;;;0.51;67.31
39177;BME280;24904;52.208;21.192;2023-03-17T01:25:57;101376.27;;;0.48;67.52
39177;BME280;24904;52.208;21.192;2023-03-17T01:31:03;101371.62;;;0.49;67.59
39177;BME280;24904;52.208;21.192;2023-03-17T01:36:10;101372.98;;;0.49;67.43
39177;BME280;24904;52.208;21.192;2023-03-17T01:41:15;101367.23;;;0.44;67.55
39177;BME280;24904;52.208;21.192;2023-03-17T01:46:24;101370.45;;;0.40;67.42
39177;BME280;24904;52.208;21.192;2023-03-17T01:51:33;101370.21;;;0.31;67.53
39177;BME280;24904;52.208;21.192;2023-03-17T01:56:43;101371.73;;;0.32;67.60
39177;BME280;24904;52.208;21.192;2023-03-17T02:01:51;101374.22;;;0.28;67.57
39177;BME280;24904;52.208;21.192;2023-03-17T02:06:57;101376.64;;;0.22;67.65
39177;BME280;24904;52.208;21.192;2023-03-17T02:12:03;101377.44;;;0.19;67.80
39177;BME280;24904;52.208;21.192;2023-03-17T02:17:09;101380.85;;;0.17;68.00
39177;BME280;24904;52.208;21.192;2023-03-17T02:22:16;101381.39;;;0.17;67.94
39177;BME280;24904;52.208;21.192;2023-03-17T02:27:23;101382.64;;;0.16;68.00
39177;BME280;24904;52.208;21.192;2023-03-17T02:32:33;101384.38;;;0.13;67.81
39177;BME280;24904;52.208;21.192;2023-03-17T02:37:38;101388.86;;;0.10;68.03
39177;BME280;24904;52.208;21.192;2023-03-17T02:42:44;101390.33;;;0.11;68.14
39177;BME280;24904;52.208;21.192;2023-03-17T02:47:50;101391.71;;;0.15;68.27
39177;BME280;24904;52.208;21.192;2023-03-17T02:52:55;101392.35;;;0.18;68.34
39177;BME280;24904;52.208;21.192;2023-03-17T02:58:01;101393.05;;;0.17;68.21
39177;BME280;24904;52.208;21.192;2023-03-17T03:03:06;101403.34;;;0.12;68.04
39177;BME280;24904;52.208;21.192;2023-03-17T03:08:11;101411.56;;;0.09;68.07
39177;BME280;24904;52.208;21.192;2023-03-17T03:13:16;101421.44;;;0.05;68.00
39177;BME280;24904;52.208;21.192;2023-03-17T03:18:21;101420.63;;;0.05;68.06
39177;BME280;24904;52.208;21.192;2023-03-17T03:23:26;101426.08;;;0.04;68.04
39177;BME280;24904;52.208;21.192;2023-03-17T03:28:31;101433.48;;;0.04;68.07
39177;BME280;24904;52.208;21.192;2023-03-17T03:33:36;101430.23;;;0.05;67.99
39177;BME280;24904;52.208;21.192;2023-03-17T03:38:41;101438.52;;;0.08;67.99
39177;BME280;24904;52.208;21.192;2023-03-17T03:43:46;101438.34;;;0.11;68.08
39177;BME280;24904;52.208;21.192;2023-03-17T03:48:51;101443.48;;;0.11;68.08
39177;BME280;24904;52.208;21.192;2023-03-17T03:53:57;101444.55;;;0.12;67.96
39177;BME280;24904;52.208;21.192;2023-03-17T03:59:02;101447.13;;;0.13;67.81
39177;BME280;24904;52.208;21.192;2023-03-17T04:04:07;101441.05;;;0.09;67.87
39177;BME280;24904;52.208;21.192;2023-03-17T04:09:12;101435.04;;;0.04;67.69
39177;BME280;24904;52.208;21.192;2023-03-17T04:14:17;101430.73;;;0.03;67.75
39177;BME280;24904;52.208;21.192;2023-03-17T04:19:22;101429.61;;;-0.03;67.72
39177;BME280;24904;52.208;21.192;2023-03-17T04:24:27;101432.70;;;-0.04;67.96
39177;BME280;24904;52.208;21.192;2023-03-17T04:29:32;101430.31;;;-0.01;68.00
39177;BME280;24904;52.208;21.192;2023-03-17T04:34:37;101437.39;;;0.00;67.93
39177;BME280;24904;52.208;21.192;2023-03-17T04:39:42;101442.41;;;-0.02;67.89
39177;BME280;24904;52.208;21.192;2023-03-17T04:44:48;101442.35;;;-0.08;67.94
39177;BME280;24904;52.208;21.192;2023-03-17T04:49:53;101446.61;;;-0.09;68.05
39177;BME280;24904;52.208;21.192;2023-03-17T04:54:58;101446.64;;;-0.11;68.00
39177;BME280;24904;52.208;21.192;2023-03-17T05:00:04;101447.88;;;-0.16;68.10
39177;BME280;24904;52.208;21.192;2023-03-17T05:05:10;101450.86;;;-0.18;68.06
39177;BME280;24904;52.208;21.192;2023-03-17T05:10:16;101445.56;;;-0.14;68.26
39177;BME280;24904;52.208;21.192;2023-03-17T05:15:21;101441.17;;;-0.15;68.20
39177;BME280;24904;52.208;21.192;2023-03-17T05:20:26;101442.80;;;-0.12;68.23
39177;BME280;24904;52.208;21.192;2023-03-17T05:25:31;101448.95;;;-0.03;68.51
39177;BME280;24904;52.208;21.192;2023-03-17T05:30:36;101455.77;;;0.06;68.45
39177;BME280;24904;52.208;21.192;2023-03-17T05:35:41;101463.66;;;0.13;68.52
39177;BME280;24904;52.208;21.192;2023-03-17T05:41:19;101472.59;;;0.28;68.54
39177;BME280;24904;52.208;21.192;2023-03-17T05:46:25;101464.36;;;0.39;68.59
39177;BME280;24904;52.208;21.192;2023-03-17T05:51:30;101472.94;;;0.50;68.63
39177;BME280;24904;52.208;21.192;2023-03-17T05:56:35;101487.48;;;0.64;68.56
39177;BME280;24904;52.208;21.192;2023-03-17T06:01:41;101483.55;;;0.83;68.31
39177;BME280;24904;52.208;21.192;2023-03-17T06:06:46;101485.58;;;0.98;68.50
39177;BME280;24904;52.208;21.192;2023-03-17T06:11:51;101494.52;;;1.15;68.18
39177;BME280;24904;52.208;21.192;2023-03-17T06:16:56;101495.55;;;1.37;68.15
39177;BME280;24904;52.208;21.192;2023-03-17T06:22:01;101495.95;;;1.60;68.11
39177;BME280;24904;52.208;21.192;2023-03-17T06:27:06;101492.09;;;1.89;67.76
39177;BME280;24904;52.208;21.192;2023-03-17T06:32:31;101483.02;;;2.16;67.47
39177;BME280;24904;52.208;21.192;2023-03-17T06:37:37;101475.48;;;2.36;67.06
39177;BME280;24904;52.208;21.192;2023-03-17T06:42:42;101471.83;;;2.51;66.93
39177;BME280;24904;52.208;21.192;2023-03-17T06:47:47;101484.31;;;2.61;66.26
39177;BME280;24904;52.208;21.192;2023-03-17T06:52:55;101488.80;;;2.76;66.31
39177;BME280;24904;52.208;21.192;2023-03-17T06:58:00;101490.48;;;2.99;66.18
39177;BME280;24904;52.208;21.192;2023-03-17T07:03:05;101497.75;;;3.27;65.62
39177;BME280;24904;52.208;21.192;2023-03-17T07:08:12;101499.14;;;3.46;65.05
39177;BME280;24904;52.208;21.192;2023-03-17T07:13:17;101500.59;;;3.61;64.81
39177;BME280;24904;52.208;21.192;2023-03-17T07:18:23;101505.83;;;3.71;64.35
39177;BME280;24904;52.208;21.192;2023-03-17T07:23:29;101496.98;;;3.76;64.23
39177;BME280;24904;52.208;21.192;2023-03-17T07:28:34;101487.41;;;3.79;64.20
39177;BME280;24904;52.208;21.192;2023-03-17T07:33:39;101480.89;;;3.83;63.64
39177;BME280;24904;52.208;21.192;2023-03-17T07:38:44;101484.60;;;3.97;63.87
39177;BME280;24904;52.208;21.192;2023-03-17T07:43:49;101486.71;;;4.25;63.61
39177;BME280;24904;52.208;21.192;2023-03-17T07:48:54;101480.73;;;4.54;63.27
39177;BME280;24904;52.208;21.192;2023-03-17T07:54:00;101476.23;;;4.80;62.81
39177;BME280;24904;52.208;21.192;2023-03-17T07:59:08;101465.52;;;5.04;62.67
39177;BME280;24904;52.208;21.192;2023-03-17T08:04:14;101473.94;;;5.28;62.12
39177;BME280;24904;52.208;21.192;2023-03-17T08:09:19;101471.52;;;5.55;61.85
39177;BME280;24904;52.208;21.192;2023-03-17T08:14:24;101468.10;;;5.84;61.18
39177;BME280;24904;52.208;21.192;2023-03-17T08:19:30;101464.34;;;6.06;60.31
39177;BME280;24904;52.208;21.192;2023-03-17T08:24:35;101460.79;;;6.28;59.78
39177;BME280;24904;52.208;21.192;2023-03-17T08:29:42;101457.54;;;6.50;58.91
39177;BME280;24904;52.208;21.192;2023-03-17T08:34:51;101455.54;;;6.71;58.32
39177;BME280;24904;52.208;21.192;2023-03-17T08:39:56;101461.74;;;6.88;56.87
39177;BME280;24904;52.208;21.192;2023-03-17T08:45:01;101470.48;;;7.08;56.26
39177;BME280;24904;52.208;21.192;2023-03-17T08:50:09;101469.23;;;7.27;55.40
39177;BME280;24904;52.208;21.192;2023-03-17T08:55:16;101480.45;;;7.43;54.03
39177;BME280;24904;52.208;21.192;2023-03-17T09:00:23;101483.26;;;7.57;53.79
39177;BME280;24904;52.208;21.192;2023-03-17T09:05:29;101489.64;;;7.77;53.08
39177;BME280;24904;52.208;21.192;2023-03-17T09:10:34;101486.41;;;7.78;51.52
39177;BME280;24904;52.208;21.192;2023-03-17T09:15:40;101488.98;;;7.78;51.57
39177;BME280;24904;52.208;21.192;2023-03-17T09:20:45;101485.17;;;7.94;50.90
39177;BME280;24904;52.208;21.192;2023-03-17T09:25:50;101488.98;;;8.12;50.97
39177;BME280;24904;52.208;21.192;2023-03-17T09:30:59;101488.22;;;8.28;50.10
39177;BME280;24904;52.208;21.192;2023-03-17T09:36:05;101488.27;;;8.43;49.37
39177;BME280;24904;52.208;21.192;2023-03-17T09:41:28;101488.74;;;8.52;49.01
39177;BME280;24904;52.208;21.192;2023-03-17T09:46:44;101479.77;;;8.57;48.63
39177;BME280;24904;52.208;21.192;2023-03-17T09:51:53;101469.91;;;8.65;48.28
39177;BME280;24904;52.208;21.192;2023-03-17T09:57:05;101464.77;;;8.68;47.71
39177;BME280;24904;52.208;21.192;2023-03-17T10:02:20;101456.19;;;8.73;47.72
39177;BME280;24904;52.208;21.192;2023-03-17T10:15:36;101425.73;;;9.13;47.14
39177;BME280;24904;52.208;21.192;2023-03-17T10:20:48;101422.01;;;9.20;46.57
39177;BME280;24904;52.208;21.192;2023-03-17T10:25:58;101418.27;;;9.28;45.63
39177;BME280;24904;52.208;21.192;2023-03-17T10:31:14;101418.81;;;9.36;44.93
39177;BME280;24904;52.208;21.192;2023-03-17T10:36:33;101417.39;;;9.47;44.41
39177;BME280;24904;52.208;21.192;2023-03-17T10:41:45;101405.11;;;9.38;43.75
39177;BME280;24904;52.208;21.192;2023-03-17T10:46:55;101400.86;;;9.42;43.41
39177;BME280;24904;52.208;21.192;2023-03-17T10:52:00;101390.92;;;9.42;43.36
39177;BME280;24904;52.208;21.192;2023-03-17T10:57:10;101387.67;;;9.39;42.96
39177;BME280;24904;52.208;21.192;2023-03-17T11:02:22;101383.39;;;9.35;42.88
39177;BME280;24904;52.208;21.192;2023-03-17T11:07:33;101378.60;;;9.39;43.02
39177;BME280;24904;52.208;21.192;2023-03-17T11:12:41;101381.30;;;9.47;42.60
39177;BME280;24904;52.208;21.192;2023-03-17T11:17:52;101381.60;;;9.55;42.76
39177;BME280;24904;52.208;21.192;2023-03-17T11:23:03;101376.98;;;9.65;42.56
39177;BME280;24904;52.208;21.192;2023-03-17T11:28:18;101374.08;;;9.72;42.38
39177;BME280;24904;52.208;21.192;2023-03-17T11:33:34;101377.59;;;9.74;42.31
39177;BME280;24904;52.208;21.192;2023-03-17T11:38:45;101367.58;;;9.65;41.95
39177;BME280;24904;52.208;21.192;2023-03-17T11:44:06;101358.95;;;9.62;42.19
39177;BME280;24904;52.208;21.192;2023-03-17T11:49:19;101353.52;;;9.61;42.25
39177;BME280;24904;52.208;21.192;2023-03-17T11:54:30;101347.33;;;9.56;41.85
39177;BME280;24904;52.208;21.192;2023-03-17T11:59:40;101339.42;;;9.59;41.67
39177;BME280;24904;52.208;21.192;2023-03-17T12:04:53;101329.08;;;9.61;41.74
39177;BME280;24904;52.208;21.192;2023-03-17T12:10:05;101317.68;;;9.63;42.15
39177;BME280;24904;52.208;21.192;2023-03-17T12:15:20;101311.42;;;9.65;41.75
39177;BME280;24904;52.208;21.192;2023-03-17T12:20:32;101297.52;;;9.69;42.03
39177;BME280;24904;52.208;21.192;2023-03-17T12:25:47;101290.54;;;9.74;41.69
39177;BME280;24904;52.208;21.192;2023-03-17T12:30:56;101290.40;;;9.68;41.66
39177;BME280;24904;52.208;21.192;2023-03-17T12:36:04;101287.54;;;9.69;42.21
39177;BME280;24904;52.208;21.192;2023-03-17T12:41:46;101277.89;;;9.73;42.44
39177;BME280;24904;52.208;21.192;2023-03-17T12:47:25;101283.11;;;9.72;42.23
39177;BME280;24904;52.208;21.192;2023-03-17T12:52:43;101288.00;;;9.71;42.28
39177;BME280;24904;52.208;21.192;2023-03-17T12:58:00;101287.93;;;9.71;42.38
39177;BME280;24904;52.208;21.192;2023-03-17T13:03:15;101280.30;;;9.73;42.29
39177;BME280;24904;52.208;21.192;2023-03-17T13:08:27;101281.35;;;9.73;42.42
39177;BME280;24904;52.208;21.192;2023-03-17T13:13:46;101275.84;;;9.75;42.35
39177;BME280;24904;52.208;21.192;2023-03-17T13:19:19;101274.54;;;9.71;42.18
39177;BME280;24904;52.208;21.192;2023-03-17T13:24:45;101268.17;;;9.66;42.10
39177;BME280;24904;52.208;21.192;2023-03-17T13:29:51;101258.72;;;9.61;41.99
39177;BME280;24904;52.208;21.192;2023-03-17T13:35:26;101258.31;;;9.60;42.21
39177;BME280;24904;52.208;21.192;2023-03-17T13:40:49;101247.50;;;9.60;41.98
39177;BME280;24904;52.208;21.192;2023-03-17T13:46:19;101242.75;;;9.54;41.55
39177;BME280;24904;52.208;21.192;2023-03-17T13:51:31;101235.88;;;9.49;41.34
39177;BME280;24904;52.208;21.192;2023-03-17T13:56:49;101231.97;;;9.43;41.81
39177;BME280;24904;52.208;21.192;2023-03-17T14:01:58;101236.52;;;9.38;41.53
39177;BME280;24904;52.208;21.192;2023-03-17T14:07:12;101231.34;;;9.36;41.60
39177;BME280;24904;52.208;21.192;2023-03-17T14:12:23;101229.63;;;9.31;41.50
39177;BME280;24904;52.208;21.192;2023-03-17T14:17:33;101216.37;;;9.29;41.71
39177;BME280;24904;52.208;21.192;2023-03-17T14:22:44;101205.85;;;9.31;41.83
39177;BME280;24904;52.208;21.192;2023-03-17T14:27:52;101204.81;;;9.33;41.61
39177;BME280;24904;52.208;21.192;2023-03-17T14:33:00;101201.60;;;9.31;41.56
39177;BME280;24904;52.208;21.192;2023-03-17T14:38:16;101194.80;;;9.26;41.53
39177;BME280;24904;52.208;21.192;2023-03-17T14:43:22;101196.61;;;9.24;41.67
39177;BME280;24904;52.208;21.192;2023-03-17T14:48:29;101197.09;;;9.24;41.66
39177;BME280;24904;52.208;21.192;2023-03-17T14:53:38;101188.19;;;9.22;41.73
39177;BME280;24904;52.208;21.192;2023-03-17T14:58:45;101188.38;;;9.20;41.58
39177;BME280;24904;52.208;21.192;2023-03-17T15:03:56;101197.84;;;9.15;41.23
39177;BME280;24904;52.208;21.192;2023-03-17T15:09:02;101200.95;;;9.12;41.42
39177;BME280;24904;52.208;21.192;2023-03-17T15:14:17;101193.79;;;9.10;41.42
39177;BME280;24904;52.208;21.192;2023-03-17T15:19:26;101176.01;;;9.07;41.22
39177;BME280;24904;52.208;21.192;2023-03-17T15:24:41;101179.98;;;9.04;41.23
39177;BME280;24904;52.208;21.192;2023-03-17T15:29:46;101168.84;;;9.03;41.25
39177;BME280;24904;52.208;21.192;2023-03-17T15:34:53;101158.23;;;8.97;41.42
39177;BME280;24904;52.208;21.192;2023-03-17T15:39:59;101154.66;;;8.89;41.26
39177;BME280;24904;52.208;21.192;2023-03-17T15:45:09;101151.87;;;8.87;41.45
39177;BME280;24904;52.208;21.192;2023-03-17T15:50:21;101159.20;;;8.87;41.29
39177;BME280;24904;52.208;21.192;2023-03-17T15:55:28;101166.61;;;8.84;41.62
39177;BME280;24904;52.208;21.192;2023-03-17T16:00:34;101174.84;;;8.82;41.59
39177;BME280;24904;52.208;21.192;2023-03-17T16:05:40;101170.20;;;8.84;41.80
39177;BME280;24904;52.208;21.192;2023-03-17T16:10:46;101174.75;;;8.79;41.91
39177;BME280;24904;52.208;21.192;2023-03-17T16:15:53;101177.09;;;8.71;42.02
39177;BME280;24904;52.208;21.192;2023-03-17T16:20:59;101184.21;;;8.66;41.85
39177;BME280;24904;52.208;21.192;2023-03-17T16:26:05;101181.96;;;8.61;42.04
39177;BME280;24904;52.208;21.192;2023-03-17T16:31:19;101177.98;;;8.52;42.13
39177;BME280;24904;52.208;21.192;2023-03-17T16:36:25;101174.55;;;8.43;42.35
39177;BME280;24904;52.208;21.192;2023-03-17T16:41:34;101173.55;;;8.32;42.38
39177;BME280;24904;52.208;21.192;2023-03-17T16:46:38;101173.56;;;8.21;42.67
39177;BME280;24904;52.208;21.192;2023-03-17T16:51:47;101175.71;;;8.14;43.07
39177;BME280;24904;52.208;21.192;2023-03-17T16:56:52;101177.14;;;8.02;42.91
39177;BME280;24904;52.208;21.192;2023-03-17T17:01:57;101180.98;;;7.93;43.15
39177;BME280;24904;52.208;21.192;2023-03-17T17:07:03;101186.49;;;7.84;43.36
39177;BME280;24904;52.208;21.192;2023-03-17T17:12:09;101196.48;;;7.72;43.39
39177;BME280;24904;52.208;21.192;2023-03-17T17:17:14;101198.64;;;7.62;43.53
39177;BME280;24904;52.208;21.192;2023-03-17T17:22:19;101199.61;;;7.53;43.77
39177;BME280;24904;52.208;21.192;2023-03-17T17:35:41;101190.96;;;7.34;43.81
39177;BME280;24904;52.208;21.192;2023-03-17T17:40:47;101190.75;;;7.25;44.12
39177;BME280;24904;52.208;21.192;2023-03-17T17:45:53;101193.81;;;7.19;44.17
39177;BME280;24904;52.208;21.192;2023-03-17T17:50:59;101194.85;;;7.11;44.34
39177;BME280;24904;52.208;21.192;2023-03-17T17:56:04;101203.82;;;7.03;44.51
39177;BME280;24904;52.208;21.192;2023-03-17T18:01:11;101203.74;;;6.99;44.63
39177;BME280;24904;52.208;21.192;2023-03-17T18:06:19;101199.63;;;6.91;44.78
39177;BME280;24904;52.208;21.192;2023-03-17T18:11:24;101198.05;;;6.83;45.00
39177;BME280;24904;52.208;21.192;2023-03-17T18:16:29;101198.20;;;6.78;45.18
39177;BME280;24904;52.208;21.192;2023-03-17T18:21:35;101194.29;;;6.73;45.23
39177;BME280;24904;52.208;21.192;2023-03-17T18:26:59;101194.41;;;6.67;45.52
39177;BME280;24904;52.208;21.192;2023-03-17T18:32:07;101195.23;;;6.58;45.52
39177;BME280;24904;52.208;21.192;2023-03-17T18:37:15;101198.06;;;6.52;45.69
39177;BME280;24904;52.208;21.192;2023-03-17T18:42:21;101196.64;;;6.44;45.71
39177;BME280;24904;52.208;21.192;2023-03-17T18:47:26;101195.28;;;6.41;45.84
39177;BME280;24904;52.208;21.192;2023-03-17T18:52:33;101197.20;;;6.35;46.08
39177;BME280;24904;52.208;21.192;2023-03-17T18:57:38;101193.94;;;6.30;46.04
39177;BME280;24904;52.208;21.192;2023-03-17T19:02:44;101193.31;;;6.26;45.91
39177;BME280;24904;52.208;21.192;2023-03-17T19:07:49;101188.86;;;6.21;45.91
39177;BME280;24904;52.208;21.192;2023-03-17T19:12:54;101193.76;;;6.21;45.88
39177;BME280;24904;52.208;21.192;2023-03-17T19:18:01;101197.80;;;6.17;46.11
39177;BME280;24904;52.208;21.192;2023-03-17T19:23:06;101191.61;;;6.09;46.16
39177;BME280;24904;52.208;21.192;2023-03-17T19:28:11;101185.79;;;6.06;46.03
39177;BME280;24904;52.208;21.192;2023-03-17T19:33:17;101183.79;;;6.03;46.09
39177;BME280;24904;52.208;21.192;2023-03-17T19:38:22;101182.40;;;6.00;46.17
39177;BME280;24904;52.208;21.192;2023-03-17T19:43:27;101185.36;;;5.96;46.09
39177;BME280;24904;52.208;21.192;2023-03-17T19:48:33;101182.96;;;5.92;46.07
39177;BME280;24904;52.208;21.192;2023-03-17T19:53:38;101181.26;;;5.91;46.06
39177;BME280;24904;52.208;21.192;2023-03-17T19:58:44;101180.37;;;5.92;46.15
39177;BME280;24904;52.208;21.192;2023-03-17T20:03:49;101183.81;;;5.91;46.06
39177;BME280;24904;52.208;21.192;2023-03-17T20:08:54;101177.62;;;5.86;46.11
39177;BME280;24904;52.208;21.192;2023-03-17T20:13:59;101178.30;;;5.84;46.29
39177;BME280;24904;52.208;21.192;2023-03-17T20:19:05;101178.30;;;5.83;46.25
39177;BME280;24904;52.208;21.192;2023-03-17T20:24:10;101175.64;;;5.84;46.10
39177;BME280;24904;52.208;21.192;2023-03-17T20:29:17;101169.04;;;5.83;46.35
39177;BME280;24904;52.208;21.192;2023-03-17T20:34:22;101166.88;;;5.85;46.39
39177;BME280;24904;52.208;21.192;2023-03-17T20:39:28;101167.28;;;5.82;46.35
39177;BME280;24904;52.208;21.192;2023-03-17T20:44:34;101165.52;;;5.80;46.19
39177;BME280;24904;52.208;21.192;2023-03-17T20:49:40;101158.83;;;5.77;46.27
39177;BME280;24904;52.208;21.192;2023-03-17T20:54:45;101153.84;;;5.75;46.34
39177;BME280;24904;52.208;21.192;2023-03-17T20:59:50;101159.59;;;5.77;46.53
39177;BME280;24904;52.208;21.192;2023-03-17T21:04:55;101157.73;;;5.74;46.25
39177;BME280;24904;52.208;21.192;2023-03-17T21:10:00;101154.41;;;5.71;46.37
39177;BME280;24904;52.208;21.192;2023-03-17T21:15:07;101154.67;;;5.75;46.34
39177;BME280;24904;52.208;21.192;2023-03-17T21:20:13;101152.05;;;5.74;46.37
39177;BME280;24904;52.208;21.192;2023-03-17T21:25:19;101151.35;;;5.74;46.39
39177;BME280;24904;52.208;21.192;2023-03-17T21:30:24;101151.32;;;5.73;46.51
39177;BME280;24904;52.208;21.192;2023-03-17T21:35:30;101151.65;;;5.70;46.48
39177;BME280;24904;52.208;21.192;2023-03-17T21:40:37;101141.67;;;5.63;46.35
39177;BME280;24904;52.208;21.192;2023-03-17T21:45:43;101141.15;;;5.59;46.47
39177;BME280;24904;52.208;21.192;2023-03-17T21:50:49;101141.86;;;5.57;46.49
39177;BME280;24904;52.208;21.192;2023-03-17T21:55:54;101148.97;;;5.60;46.93
39177;BME280;24904;52.208;21.192;2023-03-17T22:00:59;101151.66;;;5.62;46.74
39177;BME280;24904;52.208;21.192;2023-03-17T22:06:06;101151.22;;;5.63;46.81
39177;BME280;24904;52.208;21.192;2023-03-17T22:11:13;101159.77;;;5.61;46.56
39177;BME280;24904;52.208;21.192;2023-03-17T22:16:19;101163.48;;;5.61;46.49
39177;BME280;24904;52.208;21.192;2023-03-17T22:21:24;101162.43;;;5.60;46.67
39177;BME280;24904;52.208;21.192;2023-03-17T22:26:29;101165.08;;;5.60;46.57
39177;BME280;24904;52.208;21.192;2023-03-17T22:31:34;101158.02;;;5.60;46.57
39177;BME280;24904;52.208;21.192;2023-03-17T22:36:39;101153.70;;;5.56;46.47
39177;BME280;24904;52.208;21.192;2023-03-17T22:41:45;101147.30;;;5.53;46.59
39177;BME280;24904;52.208;21.192;2023-03-17T22:46:50;101144.48;;;5.49;46.43
39177;BME280;24904;52.208;21.192;2023-03-17T22:51:55;101138.55;;;5.44;46.17
39177;BME280;24904;52.208;21.192;2023-03-17T22:57:00;101137.36;;;5.44;46.30
39177;BME280;24904;52.208;21.192;2023-03-17T23:02:05;101140.66;;;5.44;46.20
39177;BME280;24904;52.208;21.192;2023-03-17T23:07:11;101133.55;;;5.44;45.94
39177;BME280;24904;52.208;21.192;2023-03-17T23:12:16;101132.18;;;5.41;45.86
39177;BME280;24904;52.208;21.192;2023-03-17T23:17:25;101131.96;;;5.39;45.84
39177;BME280;24904;52.208;21.192;2023-03-17T23:22:31;101129.11;;;5.42;45.81
39177;BME280;24904;52.208;21.192;2023-03-17T23:27:36;101120.84;;;5.41;45.32
39177;BME280;24904;52.208;21.192;2023-03-17T23:32:42;101118.61;;;5.38;45.60
39177;BME280;24904;52.208;21.192;2023-03-17T23:37:47;101119.83;;;5.34;45.47
39177;BME280;24904;52.208;21.192;2023-03-17T23:42:52;101116.48;;;5.34;45.41
39177;BME280;24904;52.208;21.192;2023-03-17T23:47:57;101109.80;;;5.29;45.15
39177;BME280;24904;52.208;21.192;2023-03-17T23:53:02;101105.79;;;5.30;45.44
39177;BME280;24904;52.208;21.192;2023-03-17T23:58:07;101103.04;;;5.34;45.24
